sensor_id;sensor_type;location;lat;lon;timestamp;temperature;humidity
75799;DHT22;70933;44.692;37.776;2023-09-18T00:00:49;25.93;35.08
75799;DHT22;70933;44.692;37.776;2023-09-18T00:01:54;25.94;35.04
75799;DHT22;70933;44.692;37.776;2023-09-18T00:02:55;25.96;35.05
75799;DHT22;70933;44.692;37.776;2023-09-18T00:03:57;25.96;35.05
75799;DHT22;70933;44.692;37.776;2023-09-18T00:04:59;25.97;35.03
75799;DHT22;70933;44.692;37.776;2023-09-18T00:06:00;25.98;35.02
75799;DHT22;70933;44.692;37.776;2023-09-18T00:07:02;25.99;34.97
75799;DHT22;70933;44.692;37.776;2023-09-18T00:08:03;26.01;35.02
75799;DHT22;70933;44.692;37.776;2023-09-18T00:09:05;26.02;34.99
75799;DHT22;70933;44.692;37.776;2023-09-18T00:10:12;26.02;34.95
75799;DHT22;70933;44.692;37.776;2023-09-18T00:11:14;26.04;34.92
75799;DHT22;70933;44.692;37.776;2023-09-18T00:12:16;26.04;34.95
75799;DHT22;70933;44.692;37.776;2023-09-18T00:13:17;26.05;34.94
75799;DHT22;70933;44.692;37.776;2023-09-18T00:14:19;26.07;34.90
75799;DHT22;70933;44.692;37.776;2023-09-18T00:15:21;26.08;34.92
75799;DHT22;70933;44.692;37.776;2023-09-18T00:16:22;26.09;34.89
75799;DHT22;70933;44.692;37.776;2023-09-18T00:17:24;26.10;34.92
75799;DHT22;70933;44.692;37.776;2023-09-18T00:18:25;26.10;34.88
75799;DHT22;70933;44.692;37.776;2023-09-18T00:19:27;26.12;34.92
75799;DHT22;70933;44.692;37.776;2023-09-18T00:20:28;26.11;34.86
75799;DHT22;70933;44.692;37.776;2023-09-18T00:21:30;26.15;34.88
75799;DHT22;70933;44.692;37.776;2023-09-18T00:22:32;26.13;34.87
75799;DHT22;70933;44.692;37.776;2023-09-18T00:23:33;26.16;34.82
75799;DHT22;70933;44.692;37.776;2023-09-18T00:24:36;26.15;34.83
75799;DHT22;70933;44.692;37.776;2023-09-18T00:25:38;26.17;34.83
75799;DHT22;70933;44.692;37.776;2023-09-18T00:26:42;26.18;34.80
75799;DHT22;70933;44.692;37.776;2023-09-18T00:27:43;26.18;34.79
75799;DHT22;70933;44.692;37.776;2023-09-18T00:28:45;26.20;34.75
75799;DHT22;70933;44.692;37.776;2023-09-18T00:29:46;26.18;34.79
75799;DHT22;70933;44.692;37.776;2023-09-18T00:30:49;26.18;34.74
75799;DHT22;70933;44.692;37.776;2023-09-18T00:31:51;26.20;34.78
75799;DHT22;70933;44.692;37.776;2023-09-18T00:32:53;26.20;34.74
75799;DHT22;70933;44.692;37.776;2023-09-18T00:33:54;26.23;34.70
75799;DHT22;70933;44.692;37.776;2023-09-18T00:34:56;26.22;34.60
75799;DHT22;70933;44.692;37.776;2023-09-18T00:35:57;26.21;34.70
75799;DHT22;70933;44.692;37.776;2023-09-18T00:36:59;26.23;34.66
75799;DHT22;70933;44.692;37.776;2023-09-18T00:38:00;26.22;34.62
75799;DHT22;70933;44.692;37.776;2023-09-18T00:39:05;26.23;34.68
75799;DHT22;70933;44.692;37.776;2023-09-18T00:40:07;26.24;34.67
75799;DHT22;70933;44.692;37.776;2023-09-18T00:41:09;26.25;34.63
75799;DHT22;70933;44.692;37.776;2023-09-18T00:42:10;26.25;34.63
75799;DHT22;70933;44.692;37.776;2023-09-18T00:43:15;26.26;34.63
75799;DHT22;70933;44.692;37.776;2023-09-18T00:44:16;26.27;34.63
75799;DHT22;70933;44.692;37.776;2023-09-18T00:45:18;26.27;34.60
75799;DHT22;70933;44.692;37.776;2023-09-18T00:46:19;26.28;34.51
75799;DHT22;70933;44.692;37.776;2023-09-18T00:47:21;26.28;34.53
75799;DHT22;70933;44.692;37.776;2023-09-18T00:48:22;26.30;34.52
75799;DHT22;70933;44.692;37.776;2023-09-18T00:49:24;26.31;34.53
75799;DHT22;70933;44.692;37.776;2023-09-18T00:50:26;26.31;34.50
75799;DHT22;70933;44.692;37.776;2023-09-18T00:51:27;26.32;34.50
75799;DHT22;70933;44.692;37.776;2023-09-18T00:52:29;26.32;34.50
75799;DHT22;70933;44.692;37.776;2023-09-18T00:53:31;26.32;34.47
75799;DHT22;70933;44.692;37.776;2023-09-18T00:54:33;26.33;34.37
75799;DHT22;70933;44.692;37.776;2023-09-18T00:55:39;26.33;34.41
75799;DHT22;70933;44.692;37.776;2023-09-18T00:56:40;26.33;34.48
75799;DHT22;70933;44.692;37.776;2023-09-18T00:57:42;26.33;34.43
75799;DHT22;70933;44.692;37.776;2023-09-18T00:58:45;26.34;34.40
75799;DHT22;70933;44.692;37.776;2023-09-18T00:59:47;26.35;34.26
75799;DHT22;70933;44.692;37.776;2023-09-18T01:00:48;26.35;34.34
75799;DHT22;70933;44.692;37.776;2023-09-18T01:01:52;26.35;34.36
75799;DHT22;70933;44.692;37.776;2023-09-18T01:02:54;26.34;34.31
75799;DHT22;70933;44.692;37.776;2023-09-18T01:03:56;26.36;34.24
75799;DHT22;70933;44.692;37.776;2023-09-18T01:04:59;26.36;34.24
75799;DHT22;70933;44.692;37.776;2023-09-18T01:06:00;26.37;34.27
75799;DHT22;70933;44.692;37.776;2023-09-18T01:07:02;26.36;34.26
75799;DHT22;70933;44.692;37.776;2023-09-18T01:08:07;26.36;34.25
75799;DHT22;70933;44.692;37.776;2023-09-18T01:09:08;26.36;34.24
75799;DHT22;70933;44.692;37.776;2023-09-18T01:10:14;26.36;34.14
75799;DHT22;70933;44.692;37.776;2023-09-18T01:11:43;26.35;34.17
75799;DHT22;70933;44.692;37.776;2023-09-18T01:12:56;26.35;34.21
75799;DHT22;70933;44.692;37.776;2023-09-18T01:14:20;26.36;34.13
75799;DHT22;70933;44.692;37.776;2023-09-18T01:15:32;26.36;34.13
75799;DHT22;70933;44.692;37.776;2023-09-18T01:16:41;26.36;34.15
75799;DHT22;70933;44.692;37.776;2023-09-18T01:17:47;26.36;34.21
75799;DHT22;70933;44.692;37.776;2023-09-18T01:18:52;26.37;34.12
75799;DHT22;70933;44.692;37.776;2023-09-18T01:19:53;26.37;34.17
75799;DHT22;70933;44.692;37.776;2023-09-18T01:20:55;26.38;34.14
75799;DHT22;70933;44.692;37.776;2023-09-18T01:21:57;26.38;34.11
75799;DHT22;70933;44.692;37.776;2023-09-18T01:22:58;26.38;34.17
75799;DHT22;70933;44.692;37.776;2023-09-18T01:24:00;26.40;34.06
75799;DHT22;70933;44.692;37.776;2023-09-18T01:25:01;26.40;34.02
75799;DHT22;70933;44.692;37.776;2023-09-18T01:26:07;26.42;34.10
75799;DHT22;70933;44.692;37.776;2023-09-18T01:27:10;26.42;34.06
75799;DHT22;70933;44.692;37.776;2023-09-18T01:28:14;26.42;34.00
75799;DHT22;70933;44.692;37.776;2023-09-18T01:29:17;26.43;34.02
75799;DHT22;70933;44.692;37.776;2023-09-18T01:30:20;26.42;34.04
75799;DHT22;70933;44.692;37.776;2023-09-18T01:31:22;26.42;34.02
75799;DHT22;70933;44.692;37.776;2023-09-18T01:32:27;26.43;34.00
75799;DHT22;70933;44.692;37.776;2023-09-18T01:33:32;26.45;33.99
75799;DHT22;70933;44.692;37.776;2023-09-18T01:34:37;26.43;34.01
75799;DHT22;70933;44.692;37.776;2023-09-18T01:35:43;26.46;34.02
75799;DHT22;70933;44.692;37.776;2023-09-18T01:36:46;26.45;33.96
75799;DHT22;70933;44.692;37.776;2023-09-18T01:37:48;26.46;33.94
75799;DHT22;70933;44.692;37.776;2023-09-18T01:38:50;26.47;33.98
75799;DHT22;70933;44.692;37.776;2023-09-18T01:39:53;26.47;33.91
75799;DHT22;70933;44.692;37.776;2023-09-18T01:40:55;26.46;33.96
75799;DHT22;70933;44.692;37.776;2023-09-18T01:42:04;26.46;33.93
75799;DHT22;70933;44.692;37.776;2023-09-18T01:43:10;26.47;33.92
75799;DHT22;70933;44.692;37.776;2023-09-18T01:44:12;26.47;33.87
75799;DHT22;70933;44.692;37.776;2023-09-18T01:45:14;26.47;33.96
75799;DHT22;70933;44.692;37.776;2023-09-18T01:46:16;26.48;33.92
75799;DHT22;70933;44.692;37.776;2023-09-18T01:47:19;26.48;33.93
75799;DHT22;70933;44.692;37.776;2023-09-18T01:48:22;26.48;33.89
75799;DHT22;70933;44.692;37.776;2023-09-18T01:49:35;26.48;33.88
75799;DHT22;70933;44.692;37.776;2023-09-18T01:50:37;26.48;33.85
75799;DHT22;70933;44.692;37.776;2023-09-18T01:51:41;26.48;33.89
75799;DHT22;70933;44.692;37.776;2023-09-18T01:52:43;26.48;33.92
75799;DHT22;70933;44.692;37.776;2023-09-18T01:53:44;26.49;33.89
75799;DHT22;70933;44.692;37.776;2023-09-18T01:54:46;26.50;33.89
75799;DHT22;70933;44.692;37.776;2023-09-18T01:55:47;26.48;33.87
75799;DHT22;70933;44.692;37.776;2023-09-18T01:56:49;26.50;33.94
75799;DHT22;70933;44.692;37.776;2023-09-18T01:57:51;26.50;33.86
75799;DHT22;70933;44.692;37.776;2023-09-18T01:58:52;26.50;33.85
75799;DHT22;70933;44.692;37.776;2023-09-18T01:59:54;26.50;33.83
75799;DHT22;70933;44.692;37.776;2023-09-18T02:00:55;26.50;33.87
75799;DHT22;70933;44.692;37.776;2023-09-18T02:01:57;26.51;33.86
75799;DHT22;70933;44.692;37.776;2023-09-18T02:02:58;26.51;33.84
75799;DHT22;70933;44.692;37.776;2023-09-18T02:04:00;26.52;33.84
75799;DHT22;70933;44.692;37.776;2023-09-18T02:05:01;26.51;33.89
75799;DHT22;70933;44.692;37.776;2023-09-18T02:06:05;26.51;33.85
75799;DHT22;70933;44.692;37.776;2023-09-18T02:07:06;26.51;33.89
75799;DHT22;70933;44.692;37.776;2023-09-18T02:08:11;26.52;33.90
75799;DHT22;70933;44.692;37.776;2023-09-18T02:09:12;26.52;33.84
75799;DHT22;70933;44.692;37.776;2023-09-18T02:10:14;26.51;33.89
75799;DHT22;70933;44.692;37.776;2023-09-18T02:11:16;26.51;33.86
75799;DHT22;70933;44.692;37.776;2023-09-18T02:12:17;26.51;33.79
75799;DHT22;70933;44.692;37.776;2023-09-18T02:13:20;26.48;33.79
75799;DHT22;70933;44.692;37.776;2023-09-18T02:14:21;26.51;33.79
75799;DHT22;70933;44.692;37.776;2023-09-18T02:15:23;26.48;33.83
75799;DHT22;70933;44.692;37.776;2023-09-18T02:16:24;26.48;33.89
75799;DHT22;70933;44.692;37.776;2023-09-18T02:17:27;26.49;33.88
75799;DHT22;70933;44.692;37.776;2023-09-18T02:18:29;26.48;33.89
75799;DHT22;70933;44.692;37.776;2023-09-18T02:19:30;26.49;33.90
75799;DHT22;70933;44.692;37.776;2023-09-18T02:20:40;26.48;33.86
75799;DHT22;70933;44.692;37.776;2023-09-18T02:21:42;26.49;33.87
75799;DHT22;70933;44.692;37.776;2023-09-18T02:22:45;26.49;33.86
75799;DHT22;70933;44.692;37.776;2023-09-18T02:23:52;26.49;33.90
75799;DHT22;70933;44.692;37.776;2023-09-18T02:24:54;26.49;33.92
75799;DHT22;70933;44.692;37.776;2023-09-18T02:25:59;26.50;33.86
75799;DHT22;70933;44.692;37.776;2023-09-18T02:27:03;26.49;33.92
75799;DHT22;70933;44.692;37.776;2023-09-18T02:28:05;26.51;33.92
75799;DHT22;70933;44.692;37.776;2023-09-18T02:29:08;26.50;33.92
75799;DHT22;70933;44.692;37.776;2023-09-18T02:30:15;26.50;33.97
75799;DHT22;70933;44.692;37.776;2023-09-18T02:31:16;26.51;33.89
75799;DHT22;70933;44.692;37.776;2023-09-18T02:32:18;26.52;33.98
75799;DHT22;70933;44.692;37.776;2023-09-18T02:33:23;26.51;33.93
75799;DHT22;70933;44.692;37.776;2023-09-18T02:34:24;26.51;33.88
75799;DHT22;70933;44.692;37.776;2023-09-18T02:35:26;26.54;33.89
75799;DHT22;70933;44.692;37.776;2023-09-18T02:36:28;26.51;33.93
75799;DHT22;70933;44.692;37.776;2023-09-18T02:37:29;26.52;33.94
75799;DHT22;70933;44.692;37.776;2023-09-18T02:38:31;26.53;33.96
75799;DHT22;70933;44.692;37.776;2023-09-18T02:39:33;26.54;33.96
75799;DHT22;70933;44.692;37.776;2023-09-18T02:40:35;26.53;33.95
75799;DHT22;70933;44.692;37.776;2023-09-18T02:41:36;26.55;33.93
75799;DHT22;70933;44.692;37.776;2023-09-18T02:42:39;26.55;33.96
75799;DHT22;70933;44.692;37.776;2023-09-18T02:43:41;26.56;33.95
75799;DHT22;70933;44.692;37.776;2023-09-18T02:44:42;26.55;33.94
75799;DHT22;70933;44.692;37.776;2023-09-18T02:45:44;26.55;33.98
75799;DHT22;70933;44.692;37.776;2023-09-18T02:46:47;26.55;33.96
75799;DHT22;70933;44.692;37.776;2023-09-18T02:47:48;26.54;33.91
75799;DHT22;70933;44.692;37.776;2023-09-18T02:48:50;26.56;33.93
75799;DHT22;70933;44.692;37.776;2023-09-18T02:49:51;26.54;33.97
75799;DHT22;70933;44.692;37.776;2023-09-18T02:50:52;26.55;33.96
75799;DHT22;70933;44.692;37.776;2023-09-18T02:51:54;26.54;33.94
75799;DHT22;70933;44.692;37.776;2023-09-18T02:52:55;26.55;33.96
75799;DHT22;70933;44.692;37.776;2023-09-18T02:53:57;26.54;33.92
75799;DHT22;70933;44.692;37.776;2023-09-18T02:54:59;26.52;33.93
75799;DHT22;70933;44.692;37.776;2023-09-18T02:56:00;26.52;33.99
75799;DHT22;70933;44.692;37.776;2023-09-18T02:57:03;26.51;33.98
75799;DHT22;70933;44.692;37.776;2023-09-18T02:58:05;26.50;34.03
75799;DHT22;70933;44.692;37.776;2023-09-18T02:59:07;26.50;34.01
75799;DHT22;70933;44.692;37.776;2023-09-18T03:00:09;26.50;34.00
75799;DHT22;70933;44.692;37.776;2023-09-18T03:01:11;26.50;34.03
75799;DHT22;70933;44.692;37.776;2023-09-18T03:02:13;26.49;34.07
75799;DHT22;70933;44.692;37.776;2023-09-18T03:03:15;26.49;34.10
75799;DHT22;70933;44.692;37.776;2023-09-18T03:04:17;26.48;32.99
75799;DHT22;70933;44.692;37.776;2023-09-18T03:05:18;26.47;32.52
75799;DHT22;70933;44.692;37.776;2023-09-18T03:06:20;26.43;31.59
75799;DHT22;70933;44.692;37.776;2023-09-18T03:07:22;26.40;31.20
75799;DHT22;70933;44.692;37.776;2023-09-18T03:08:24;26.36;30.48
75799;DHT22;70933;44.692;37.776;2023-09-18T03:09:25;26.32;29.95
75799;DHT22;70933;44.692;37.776;2023-09-18T03:10:27;26.30;29.47
75799;DHT22;70933;44.692;37.776;2023-09-18T03:11:28;26.26;29.16
75799;DHT22;70933;44.692;37.776;2023-09-18T03:12:30;26.21;29.22
75799;DHT22;70933;44.692;37.776;2023-09-18T03:13:32;26.18;30.75
75799;DHT22;70933;44.692;37.776;2023-09-18T03:14:34;26.15;31.88
75799;DHT22;70933;44.692;37.776;2023-09-18T03:15:36;26.13;32.29
75799;DHT22;70933;44.692;37.776;2023-09-18T03:16:38;26.10;31.35
75799;DHT22;70933;44.692;37.776;2023-09-18T03:17:40;26.08;30.77
75799;DHT22;70933;44.692;37.776;2023-09-18T03:18:43;26.07;30.06
75799;DHT22;70933;44.692;37.776;2023-09-18T03:19:47;26.03;29.45
75799;DHT22;70933;44.692;37.776;2023-09-18T03:20:49;25.99;29.15
75799;DHT22;70933;44.692;37.776;2023-09-18T03:21:51;25.94;28.74
75799;DHT22;70933;44.692;37.776;2023-09-18T03:22:55;25.90;28.58
75799;DHT22;70933;44.692;37.776;2023-09-18T03:23:56;25.87;28.00
75799;DHT22;70933;44.692;37.776;2023-09-18T03:24:59;25.81;28.61
75799;DHT22;70933;44.692;37.776;2023-09-18T03:26:00;25.80;29.93
75799;DHT22;70933;44.692;37.776;2023-09-18T03:27:02;25.80;31.19
75799;DHT22;70933;44.692;37.776;2023-09-18T03:28:04;25.78;32.10
75799;DHT22;70933;44.692;37.776;2023-09-18T03:29:07;25.78;31.51
75799;DHT22;70933;44.692;37.776;2023-09-18T03:30:11;25.77;30.79
75799;DHT22;70933;44.692;37.776;2023-09-18T03:31:19;25.73;30.17
75799;DHT22;70933;44.692;37.776;2023-09-18T03:32:21;25.69;29.70
75799;DHT22;70933;44.692;37.776;2023-09-18T03:33:22;25.65;29.14
75799;DHT22;70933;44.692;37.776;2023-09-18T03:34:24;25.62;29.03
75799;DHT22;70933;44.692;37.776;2023-09-18T03:35:31;25.58;28.49
75799;DHT22;70933;44.692;37.776;2023-09-18T03:36:32;25.56;28.19
75799;DHT22;70933;44.692;37.776;2023-09-18T03:37:34;25.51;28.25
75799;DHT22;70933;44.692;37.776;2023-09-18T03:38:36;25.49;29.39
75799;DHT22;70933;44.692;37.776;2023-09-18T03:39:38;25.48;30.51
75799;DHT22;70933;44.692;37.776;2023-09-18T03:40:40;25.50;31.71
75799;DHT22;70933;44.692;37.776;2023-09-18T03:41:42;25.50;32.44
75799;DHT22;70933;44.692;37.776;2023-09-18T03:42:44;25.49;32.48
75799;DHT22;70933;44.692;37.776;2023-09-18T03:43:46;25.47;31.64
75799;DHT22;70933;44.692;37.776;2023-09-18T03:44:47;25.46;31.03
75799;DHT22;70933;44.692;37.776;2023-09-18T03:45:49;25.43;30.62
75799;DHT22;70933;44.692;37.776;2023-09-18T03:46:51;25.39;30.28
75799;DHT22;70933;44.692;37.776;2023-09-18T03:47:52;25.37;29.77
75799;DHT22;70933;44.692;37.776;2023-09-18T03:48:54;25.34;29.54
75799;DHT22;70933;44.692;37.776;2023-09-18T03:49:58;25.31;28.88
75799;DHT22;70933;44.692;37.776;2023-09-18T03:51:00;25.28;28.57
75799;DHT22;70933;44.692;37.776;2023-09-18T03:52:01;25.27;29.03
75799;DHT22;70933;44.692;37.776;2023-09-18T03:53:03;25.24;30.32
75799;DHT22;70933;44.692;37.776;2023-09-18T03:54:06;25.23;31.47
75799;DHT22;70933;44.692;37.776;2023-09-18T03:55:08;25.24;32.29
75799;DHT22;70933;44.692;37.776;2023-09-18T03:56:09;25.25;33.15
75799;DHT22;70933;44.692;37.776;2023-09-18T03:57:11;25.25;33.47
75799;DHT22;70933;44.692;37.776;2023-09-18T03:58:13;25.28;34.23
75799;DHT22;70933;44.692;37.776;2023-09-18T03:59:14;25.29;34.12
75799;DHT22;70933;44.692;37.776;2023-09-18T04:00:16;25.30;33.25
75799;DHT22;70933;44.692;37.776;2023-09-18T04:01:17;25.28;32.57
75799;DHT22;70933;44.692;37.776;2023-09-18T04:02:21;25.27;31.83
75799;DHT22;70933;44.692;37.776;2023-09-18T04:03:23;25.25;31.25
75799;DHT22;70933;44.692;37.776;2023-09-18T04:04:24;25.22;30.82
75799;DHT22;70933;44.692;37.776;2023-09-18T04:05:26;25.21;30.71
75799;DHT22;70933;44.692;37.776;2023-09-18T04:06:44;25.18;30.03
75799;DHT22;70933;44.692;37.776;2023-09-18T04:07:47;25.15;29.80
75799;DHT22;70933;44.692;37.776;2023-09-18T04:08:50;25.13;30.13
75799;DHT22;70933;44.692;37.776;2023-09-18T04:09:52;25.12;31.45
75799;DHT22;70933;44.692;37.776;2023-09-18T04:10:54;25.09;32.48
75799;DHT22;70933;44.692;37.776;2023-09-18T04:11:57;25.12;33.27
75799;DHT22;70933;44.692;37.776;2023-09-18T04:12:59;25.12;33.99
75799;DHT22;70933;44.692;37.776;2023-09-18T04:14:01;25.10;34.19
75799;DHT22;70933;44.692;37.776;2023-09-18T04:15:03;25.14;34.48
75799;DHT22;70933;44.692;37.776;2023-09-18T04:16:06;25.16;34.50
75799;DHT22;70933;44.692;37.776;2023-09-18T04:17:09;25.14;33.59
75799;DHT22;70933;44.692;37.776;2023-09-18T04:18:10;25.13;32.93
75799;DHT22;70933;44.692;37.776;2023-09-18T04:19:12;25.12;32.14
75799;DHT22;70933;44.692;37.776;2023-09-18T04:20:14;25.09;31.39
75799;DHT22;70933;44.692;37.776;2023-09-18T04:21:15;25.07;30.92
75799;DHT22;70933;44.692;37.776;2023-09-18T04:22:17;25.05;30.68
75799;DHT22;70933;44.692;37.776;2023-09-18T04:23:22;25.03;30.26
75799;DHT22;70933;44.692;37.776;2023-09-18T04:24:26;25.01;30.00
75799;DHT22;70933;44.692;37.776;2023-09-18T04:25:27;25.00;31.62
75799;DHT22;70933;44.692;37.776;2023-09-18T04:26:29;24.98;33.13
75799;DHT22;70933;44.692;37.776;2023-09-18T04:27:32;24.99;34.57
75799;DHT22;70933;44.692;37.776;2023-09-18T04:28:34;25.00;35.49
75799;DHT22;70933;44.692;37.776;2023-09-18T04:29:35;25.00;36.48
75799;DHT22;70933;44.692;37.776;2023-09-18T04:30:37;25.02;36.91
75799;DHT22;70933;44.692;37.776;2023-09-18T04:31:39;25.02;37.16
75799;DHT22;70933;44.692;37.776;2023-09-18T04:32:41;25.04;37.99
75799;DHT22;70933;44.692;37.776;2023-09-18T04:33:42;25.05;37.21
75799;DHT22;70933;44.692;37.776;2023-09-18T04:34:44;25.05;36.79
75799;DHT22;70933;44.692;37.776;2023-09-18T04:35:47;25.05;36.41
75799;DHT22;70933;44.692;37.776;2023-09-18T04:36:49;25.05;35.77
75799;DHT22;70933;44.692;37.776;2023-09-18T04:37:55;25.03;35.47
75799;DHT22;70933;44.692;37.776;2023-09-18T04:38:58;25.02;34.93
75799;DHT22;70933;44.692;37.776;2023-09-18T04:39:59;24.99;34.64
75799;DHT22;70933;44.692;37.776;2023-09-18T04:41:01;24.99;34.29
75799;DHT22;70933;44.692;37.776;2023-09-18T04:42:03;24.98;34.02
75799;DHT22;70933;44.692;37.776;2023-09-18T04:43:05;24.95;33.99
75799;DHT22;70933;44.692;37.776;2023-09-18T04:44:07;24.94;35.03
75799;DHT22;70933;44.692;37.776;2023-09-18T04:45:09;24.95;35.81
75799;DHT22;70933;44.692;37.776;2023-09-18T04:46:11;24.95;36.43
75799;DHT22;70933;44.692;37.776;2023-09-18T04:47:14;24.97;37.18
75799;DHT22;70933;44.692;37.776;2023-09-18T04:48:16;24.99;37.69
75799;DHT22;70933;44.692;37.776;2023-09-18T04:49:18;25.00;37.92
75799;DHT22;70933;44.692;37.776;2023-09-18T04:50:20;25.02;38.17
75799;DHT22;70933;44.692;37.776;2023-09-18T04:51:21;25.03;37.65
75799;DHT22;70933;44.692;37.776;2023-09-18T04:52:23;25.02;36.50
75799;DHT22;70933;44.692;37.776;2023-09-18T04:53:25;25.02;35.58
75799;DHT22;70933;44.692;37.776;2023-09-18T04:54:26;25.02;34.92
75799;DHT22;70933;44.692;37.776;2023-09-18T04:55:28;25.00;34.37
75799;DHT22;70933;44.692;37.776;2023-09-18T04:56:29;24.98;33.86
75799;DHT22;70933;44.692;37.776;2023-09-18T04:57:31;24.94;33.37
75799;DHT22;70933;44.692;37.776;2023-09-18T04:58:32;24.93;32.73
75799;DHT22;70933;44.692;37.776;2023-09-18T04:59:34;24.90;32.18
75799;DHT22;70933;44.692;37.776;2023-09-18T05:00:36;24.89;33.08
75799;DHT22;70933;44.692;37.776;2023-09-18T05:01:37;24.89;34.16
75799;DHT22;70933;44.692;37.776;2023-09-18T05:02:40;24.90;35.02
75799;DHT22;70933;44.692;37.776;2023-09-18T05:03:41;24.90;35.86
75799;DHT22;70933;44.692;37.776;2023-09-18T05:04:44;24.91;36.34
75799;DHT22;70933;44.692;37.776;2023-09-18T05:05:46;24.92;36.92
75799;DHT22;70933;44.692;37.776;2023-09-18T05:06:47;24.93;37.15
75799;DHT22;70933;44.692;37.776;2023-09-18T05:07:49;24.97;37.20
75799;DHT22;70933;44.692;37.776;2023-09-18T05:08:50;24.98;35.92
75799;DHT22;70933;44.692;37.776;2023-09-18T05:09:52;24.97;35.82
75799;DHT22;70933;44.692;37.776;2023-09-18T05:10:54;24.95;35.03
75799;DHT22;70933;44.692;37.776;2023-09-18T05:11:56;24.95;34.60
75799;DHT22;70933;44.692;37.776;2023-09-18T05:12:59;24.91;34.14
75799;DHT22;70933;44.692;37.776;2023-09-18T05:14:00;24.91;33.81
75799;DHT22;70933;44.692;37.776;2023-09-18T05:15:02;24.89;33.55
75799;DHT22;70933;44.692;37.776;2023-09-18T05:16:06;24.88;33.15
75799;DHT22;70933;44.692;37.776;2023-09-18T05:17:13;24.87;33.38
75799;DHT22;70933;44.692;37.776;2023-09-18T05:18:15;24.88;34.89
75799;DHT22;70933;44.692;37.776;2023-09-18T05:19:17;24.87;36.25
75799;DHT22;70933;44.692;37.776;2023-09-18T05:20:19;24.89;37.24
75799;DHT22;70933;44.692;37.776;2023-09-18T05:21:21;24.91;38.02
75799;DHT22;70933;44.692;37.776;2023-09-18T05:22:28;24.95;39.18
75799;DHT22;70933;44.692;37.776;2023-09-18T05:23:30;24.95;39.26
75799;DHT22;70933;44.692;37.776;2023-09-18T05:24:31;24.99;39.57
75799;DHT22;70933;44.692;37.776;2023-09-18T05:25:34;25.00;39.72
75799;DHT22;70933;44.692;37.776;2023-09-18T05:26:39;25.02;40.03
75799;DHT22;70933;44.692;37.776;2023-09-18T05:27:41;25.04;40.08
75799;DHT22;70933;44.692;37.776;2023-09-18T05:28:46;25.07;39.97
75799;DHT22;70933;44.692;37.776;2023-09-18T05:29:49;25.08;39.00
75799;DHT22;70933;44.692;37.776;2023-09-18T05:30:50;25.08;38.38
75799;DHT22;70933;44.692;37.776;2023-09-18T05:31:52;25.09;37.77
75799;DHT22;70933;44.692;37.776;2023-09-18T05:32:55;25.10;37.27
75799;DHT22;70933;44.692;37.776;2023-09-18T05:33:57;25.09;37.04
75799;DHT22;70933;44.692;37.776;2023-09-18T05:34:58;25.10;36.60
75799;DHT22;70933;44.692;37.776;2023-09-18T05:36:06;25.09;36.69
75799;DHT22;70933;44.692;37.776;2023-09-18T05:37:07;25.10;36.65
75799;DHT22;70933;44.692;37.776;2023-09-18T05:38:13;25.10;36.50
75799;DHT22;70933;44.692;37.776;2023-09-18T05:39:16;25.12;36.40
75799;DHT22;70933;44.692;37.776;2023-09-18T05:40:18;25.12;36.37
75799;DHT22;70933;44.692;37.776;2023-09-18T05:41:21;25.10;36.89
75799;DHT22;70933;44.692;37.776;2023-09-18T05:42:26;25.13;37.69
75799;DHT22;70933;44.692;37.776;2023-09-18T05:43:28;25.13;38.31
75799;DHT22;70933;44.692;37.776;2023-09-18T05:44:29;25.14;38.53
75799;DHT22;70933;44.692;37.776;2023-09-18T05:45:31;25.16;38.88
75799;DHT22;70933;44.692;37.776;2023-09-18T05:46:35;25.16;39.23
75799;DHT22;70933;44.692;37.776;2023-09-18T05:47:37;25.17;39.43
75799;DHT22;70933;44.692;37.776;2023-09-18T05:48:39;25.18;39.70
75799;DHT22;70933;44.692;37.776;2023-09-18T05:49:40;25.18;39.78
75799;DHT22;70933;44.692;37.776;2023-09-18T05:50:42;25.18;39.89
75799;DHT22;70933;44.692;37.776;2023-09-18T05:51:44;25.21;39.82
75799;DHT22;70933;44.692;37.776;2023-09-18T05:52:48;25.22;39.95
75799;DHT22;70933;44.692;37.776;2023-09-18T05:53:53;25.24;39.23
75799;DHT22;70933;44.692;37.776;2023-09-18T05:54:54;25.25;38.55
75799;DHT22;70933;44.692;37.776;2023-09-18T05:55:56;25.24;38.09
75799;DHT22;70933;44.692;37.776;2023-09-18T05:57:04;25.25;37.72
75799;DHT22;70933;44.692;37.776;2023-09-18T05:58:06;25.24;37.45
75799;DHT22;70933;44.692;37.776;2023-09-18T05:59:08;25.24;37.03
75799;DHT22;70933;44.692;37.776;2023-09-18T06:00:10;25.25;36.66
75799;DHT22;70933;44.692;37.776;2023-09-18T06:01:18;25.23;36.51
75799;DHT22;70933;44.692;37.776;2023-09-18T06:02:20;25.23;36.42
75799;DHT22;70933;44.692;37.776;2023-09-18T06:03:22;25.23;36.33
75799;DHT22;70933;44.692;37.776;2023-09-18T06:04:24;25.23;36.50
75799;DHT22;70933;44.692;37.776;2023-09-18T06:05:25;25.22;36.53
75799;DHT22;70933;44.692;37.776;2023-09-18T06:06:27;25.22;37.19
75799;DHT22;70933;44.692;37.776;2023-09-18T06:07:29;25.23;38.04
75799;DHT22;70933;44.692;37.776;2023-09-18T06:08:31;25.25;38.59
75799;DHT22;70933;44.692;37.776;2023-09-18T06:09:34;25.25;39.30
75799;DHT22;70933;44.692;37.776;2023-09-18T06:10:36;25.27;39.74
75799;DHT22;70933;44.692;37.776;2023-09-18T06:11:37;25.28;40.00
75799;DHT22;70933;44.692;37.776;2023-09-18T06:12:39;25.29;40.24
75799;DHT22;70933;44.692;37.776;2023-09-18T06:13:40;25.31;40.57
75799;DHT22;70933;44.692;37.776;2023-09-18T06:14:42;25.32;39.70
75799;DHT22;70933;44.692;37.776;2023-09-18T06:15:43;25.34;39.10
75799;DHT22;70933;44.692;37.776;2023-09-18T06:16:45;25.34;38.50
75799;DHT22;70933;44.692;37.776;2023-09-18T06:17:47;25.36;37.82
75799;DHT22;70933;44.692;37.776;2023-09-18T06:18:48;25.36;37.49
75799;DHT22;70933;44.692;37.776;2023-09-18T06:19:49;25.34;36.96
75799;DHT22;70933;44.692;37.776;2023-09-18T06:20:51;25.33;36.47
75799;DHT22;70933;44.692;37.776;2023-09-18T06:21:53;25.33;36.54
75799;DHT22;70933;44.692;37.776;2023-09-18T06:22:55;25.33;36.77
75799;DHT22;70933;44.692;37.776;2023-09-18T06:23:56;25.34;36.40
75799;DHT22;70933;44.692;37.776;2023-09-18T06:24:58;25.34;37.19
75799;DHT22;70933;44.692;37.776;2023-09-18T06:26:00;25.34;37.77
75799;DHT22;70933;44.692;37.776;2023-09-18T06:27:03;25.35;38.34
75799;DHT22;70933;44.692;37.776;2023-09-18T06:28:08;25.36;38.86
75799;DHT22;70933;44.692;37.776;2023-09-18T06:29:09;25.38;39.06